sensor_id;sensor_type;location;lat;lon;timestamp;P1;durP1;ratioP1;P2;durP2;ratioP2
60730;SDS011;46580;52.114;11.674;2023-02-28T00:00:16;8.73;;;3.77;;
60730;SDS011;46580;52.114;11.674;2023-02-28T00:02:42;11.67;;;4.30;;
60730;SDS011;46580;52.114;11.674;2023-02-28T00:05:09;6.77;;;4.30;;
60730;SDS011;46580;52.114;11.674;2023-02-28T00:07:35;6.03;;;4.17;;
60730;SDS011;46580;52.114;11.674;2023-02-28T00:10:03;5.47;;;3.43;;
60730;SDS011;46580;52.114;11.674;2023-02-28T00:12:32;6.83;;;3.77;;
60730;SDS011;46580;52.114;11.674;2023-02-28T00:14:57;5.13;;;3.23;;
60730;SDS011;46580;52.114;11.674;2023-02-28T00:17:24;4.63;;;3.03;;
60730;SDS011;46580;52.114;11.674;2023-02-28T00:19:50;9.63;;;3.37;;
60730;SDS011;46580;52.114;11.674;2023-02-28T00:22:17;4.17;;;2.83;;
60730;SDS011;46580;52.114;11.674;2023-02-28T00:24:43;6.97;;;3.33;;
60730;SDS011;46580;52.114;11.674;2023-02-28T00:27:11;9.70;;;3.90;;
60730;SDS011;46580;52.114;11.674;2023-02-28T00:29:36;7.67;;;4.00;;
60730;SDS011;46580;52.114;11.674;2023-02-28T00:32:02;9.30;;;4.20;;
60730;SDS011;46580;52.114;11.674;2023-02-28T00:34:28;5.83;;;3.83;;
60730;SDS011;46580;52.114;11.674;2023-02-28T00:36:54;5.63;;;3.83;;
60730;SDS011;46580;52.114;11.674;2023-02-28T00:39:19;4.83;;;3.50;;
60730;SDS011;46580;52.114;11.674;2023-02-28T00:41:45;5.53;;;3.60;;
60730;SDS011;46580;52.114;11.674;2023-02-28T00:44:10;6.70;;;3.83;;
60730;SDS011;46580;52.114;11.674;2023-02-28T00:46:36;6.83;;;3.37;;
60730;SDS011;46580;52.114;11.674;2023-02-28T00:49:02;7.17;;;4.00;;
60730;SDS011;46580;52.114;11.674;2023-02-28T00:51:27;4.70;;;3.30;;
60730;SDS011;46580;52.114;11.674;2023-02-28T00:53:52;4.70;;;3.00;;
60730;SDS011;46580;52.114;11.674;2023-02-28T00:56:19;6.17;;;3.27;;
60730;SDS011;46580;52.114;11.674;2023-02-28T00:58:44;6.97;;;3.40;;
60730;SDS011;46580;52.114;11.674;2023-02-28T01:01:10;3.73;;;2.97;;
60730;SDS011;46580;52.114;11.674;2023-02-28T01:03:36;4.30;;;3.10;;
60730;SDS011;46580;52.114;11.674;2023-02-28T01:06:01;5.20;;;2.63;;
60730;SDS011;46580;52.114;11.674;2023-02-28T01:08:29;4.77;;;2.63;;
60730;SDS011;46580;52.114;11.674;2023-02-28T01:10:54;4.20;;;2.87;;
60730;SDS011;46580;52.114;11.674;2023-02-28T01:13:20;5.53;;;2.97;;
60730;SDS011;46580;52.114;11.674;2023-02-28T01:15:50;3.30;;;2.23;;
60730;SDS011;46580;52.114;11.674;2023-02-28T01:18:17;5.70;;;2.60;;
60730;SDS011;46580;52.114;11.674;2023-02-28T01:20:44;8.97;;;3.10;;
60730;SDS011;46580;52.114;11.674;2023-02-28T01:23:11;4.43;;;3.20;;
60730;SDS011;46580;52.114;11.674;2023-02-28T01:25:36;6.83;;;3.20;;
60730;SDS011;46580;52.114;11.674;2023-02-28T01:28:02;4.73;;;3.20;;
60730;SDS011;46580;52.114;11.674;2023-02-28T01:30:28;5.00;;;2.57;;
60730;SDS011;46580;52.114;11.674;2023-02-28T01:32:54;4.43;;;2.80;;
60730;SDS011;46580;52.114;11.674;2023-02-28T01:35:20;3.57;;;2.37;;
60730;SDS011;46580;52.114;11.674;2023-02-28T01:37:46;3.83;;;2.50;;
60730;SDS011;46580;52.114;11.674;2023-02-28T01:40:13;5.23;;;2.63;;
60730;SDS011;46580;52.114;11.674;2023-02-28T01:42:38;3.13;;;2.30;;
60730;SDS011;46580;52.114;11.674;2023-02-28T01:47:34;6.03;;;2.60;;
60730;SDS011;46580;52.114;11.674;2023-02-28T01:50:04;4.77;;;3.03;;
60730;SDS011;46580;52.114;11.674;2023-02-28T01:52:34;3.23;;;2.50;;
60730;SDS011;46580;52.114;11.674;2023-02-28T01:55:01;4.47;;;2.87;;
60730;SDS011;46580;52.114;11.674;2023-02-28T01:57:30;4.80;;;3.20;;
60730;SDS011;46580;52.114;11.674;2023-02-28T02:00:24;6.33;;;2.70;;
60730;SDS011;46580;52.114;11.674;2023-02-28T02:02:50;4.60;;;3.10;;
60730;SDS011;46580;52.114;11.674;2023-02-28T02:05:22;11.17;;;2.83;;
60730;SDS011;46580;52.114;11.674;2023-02-28T02:07:51;5.83;;;3.13;;
60730;SDS011;46580;52.114;11.674;2023-02-28T02:10:21;5.17;;;3.37;;
60730;SDS011;46580;52.114;11.674;2023-02-28T02:15:40;6.77;;;3.30;;
60730;SDS011;46580;52.114;11.674;2023-02-28T02:21:17;5.50;;;3.17;;
60730;SDS011;46580;52.114;11.674;2023-02-28T02:29:35;5.57;;;3.27;;
60730;SDS011;46580;52.114;11.674;2023-02-28T02:42:51;4.20;;;3.17;;
60730;SDS011;46580;52.114;11.674;2023-02-28T02:45:32;5.77;;;3.40;;
60730;SDS011;46580;52.114;11.674;2023-02-28T02:48:13;7.57;;;3.10;;
60730;SDS011;46580;52.114;11.674;2023-02-28T02:50:45;4.63;;;3.03;;
60730;SDS011;46580;52.114;11.674;2023-02-28T02:53:14;7.10;;;3.23;;
60730;SDS011;46580;52.114;11.674;2023-02-28T02:55:44;4.73;;;3.10;;
60730;SDS011;46580;52.114;11.674;2023-02-28T02:58:13;7.10;;;3.37;;
60730;SDS011;46580;52.114;11.674;2023-02-28T03:00:42;6.27;;;2.90;;
60730;SDS011;46580;52.114;11.674;2023-02-28T03:03:12;3.60;;;2.60;;
60730;SDS011;46580;52.114;11.674;2023-02-28T03:05:41;3.13;;;2.50;;
60730;SDS011;46580;52.114;11.674;2023-02-28T03:08:12;3.90;;;2.30;;
60730;SDS011;46580;52.114;11.674;2023-02-28T03:19:04;6.10;;;2.00;;
60730;SDS011;46580;52.114;11.674;2023-02-28T03:24:35;2.80;;;1.93;;
60730;SDS011;46580;52.114;11.674;2023-02-28T03:27:27;5.63;;;2.20;;
60730;SDS011;46580;52.114;11.674;2023-02-28T03:29:57;3.00;;;1.80;;
60730;SDS011;46580;52.114;11.674;2023-02-28T03:37:47;3.97;;;2.00;;
60730;SDS011;46580;52.114;11.674;2023-02-28T03:42:57;3.80;;;1.87;;
60730;SDS011;46580;52.114;11.674;2023-02-28T03:45:28;4.70;;;2.30;;
60730;SDS011;46580;52.114;11.674;2023-02-28T03:50:41;5.70;;;2.23;;
60730;SDS011;46580;52.114;11.674;2023-02-28T03:53:10;2.87;;;2.47;;
60730;SDS011;46580;52.114;11.674;2023-02-28T03:55:42;5.10;;;2.30;;
60730;SDS011;46580;52.114;11.674;2023-02-28T03:58:16;6.10;;;2.07;;
60730;SDS011;46580;52.114;11.674;2023-02-28T04:00:54;4.23;;;1.90;;
60730;SDS011;46580;52.114;11.674;2023-02-28T04:03:33;3.23;;;2.10;;
60730;SDS011;46580;52.114;11.674;2023-02-28T04:06:02;3.00;;;1.80;;
60730;SDS011;46580;52.114;11.674;2023-02-28T04:08:29;2.87;;;2.40;;
60730;SDS011;46580;52.114;11.674;2023-02-28T04:11:06;4.23;;;2.50;;
60730;SDS011;46580;52.114;11.674;2023-02-28T04:13:37;3.90;;;2.10;;
60730;SDS011;46580;52.114;11.674;2023-02-28T04:16:08;4.27;;;2.50;;
60730;SDS011;46580;52.114;11.674;2023-02-28T04:18:37;5.03;;;2.60;;
60730;SDS011;46580;52.114;11.674;2023-02-28T04:21:08;5.97;;;2.97;;
60730;SDS011;46580;52.114;11.674;2023-02-28T04:23:33;4.50;;;2.33;;
60730;SDS011;46580;52.114;11.674;2023-02-28T04:26:00;2.97;;;2.30;;
60730;SDS011;46580;52.114;11.674;2023-02-28T04:28:25;4.60;;;2.67;;
60730;SDS011;46580;52.114;11.674;2023-02-28T04:30:56;5.50;;;2.50;;
60730;SDS011;46580;52.114;11.674;2023-02-28T04:33:23;6.67;;;2.77;;
60730;SDS011;46580;52.114;11.674;2023-02-28T04:35:57;5.87;;;2.60;;
60730;SDS011;46580;52.114;11.674;2023-02-28T04:38:28;2.70;;;2.07;;
60730;SDS011;46580;52.114;11.674;2023-02-28T04:40:57;5.50;;;2.40;;
60730;SDS011;46580;52.114;11.674;2023-02-28T04:43:23;4.63;;;2.90;;
60730;SDS011;46580;52.114;11.674;2023-02-28T04:45:50;5.00;;;2.47;;
60730;SDS011;46580;52.114;11.674;2023-02-28T04:48:15;4.60;;;2.90;;
60730;SDS011;46580;52.114;11.674;2023-02-28T04:50:42;3.70;;;2.60;;
60730;SDS011;46580;52.114;11.674;2023-02-28T04:53:09;7.47;;;2.87;;
60730;SDS011;46580;52.114;11.674;2023-02-28T04:55:34;3.90;;;2.60;;
60730;SDS011;46580;52.114;11.674;2023-02-28T04:58:01;5.80;;;2.93;;
60730;SDS011;46580;52.114;11.674;2023-02-28T05:00:26;5.93;;;3.03;;
60730;SDS011;46580;52.114;11.674;2023-02-28T05:02:52;4.67;;;2.83;;
60730;SDS011;46580;52.114;11.674;2023-02-28T05:05:18;4.87;;;3.20;;
60730;SDS011;46580;52.114;11.674;2023-02-28T05:07:44;3.50;;;2.50;;
60730;SDS011;46580;52.114;11.674;2023-02-28T05:10:10;3.97;;;2.03;;
60730;SDS011;46580;52.114;11.674;2023-02-28T05:12:37;4.73;;;2.70;;
60730;SDS011;46580;52.114;11.674;2023-02-28T05:15:03;5.97;;;3.10;;
60730;SDS011;46580;52.114;11.674;2023-02-28T05:17:30;5.93;;;3.00;;
60730;SDS011;46580;52.114;11.674;2023-02-28T05:19:56;4.30;;;2.90;;
60730;SDS011;46580;52.114;11.674;2023-02-28T05:22:23;4.83;;;3.30;;
60730;SDS011;46580;52.114;11.674;2023-02-28T05:24:49;8.73;;;3.40;;
60730;SDS011;46580;52.114;11.674;2023-02-28T05:27:15;6.73;;;3.90;;
60730;SDS011;46580;52.114;11.674;2023-02-28T05:29:42;5.77;;;2.73;;
60730;SDS011;46580;52.114;11.674;2023-02-28T05:32:09;4.83;;;2.80;;
60730;SDS011;46580;52.114;11.674;2023-02-28T05:34:39;3.90;;;2.40;;
60730;SDS011;46580;52.114;11.674;2023-02-28T05:37:05;7.27;;;3.07;;
60730;SDS011;46580;52.114;11.674;2023-02-28T05:39:31;4.53;;;2.63;;
60730;SDS011;46580;52.114;11.674;2023-02-28T05:41:58;5.10;;;2.90;;
60730;SDS011;46580;52.114;11.674;2023-02-28T05:44:25;5.83;;;2.93;;
60730;SDS011;46580;52.114;11.674;2023-02-28T05:46:50;5.50;;;2.53;;
60730;SDS011;46580;52.114;11.674;2023-02-28T05:49:17;3.53;;;2.07;;
60730;SDS011;46580;52.114;11.674;2023-02-28T05:51:42;5.03;;;2.53;;
60730;SDS011;46580;52.114;11.674;2023-02-28T05:54:09;5.07;;;2.53;;
60730;SDS011;46580;52.114;11.674;2023-02-28T05:56:34;3.10;;;2.00;;
60730;SDS011;46580;52.114;11.674;2023-02-28T05:59:02;4.37;;;2.50;;
60730;SDS011;46580;52.114;11.674;2023-02-28T06:01:35;4.37;;;2.33;;
60730;SDS011;46580;52.114;11.674;2023-02-28T06:04:02;5.23;;;2.80;;
60730;SDS011;46580;52.114;11.674;2023-02-28T06:06:29;4.37;;;2.30;;
60730;SDS011;46580;52.114;11.674;2023-02-28T06:08:55;4.97;;;2.77;;
60730;SDS011;46580;52.114;11.674;2023-02-28T06:11:21;5.53;;;2.90;;
60730;SDS011;46580;52.114;11.674;2023-02-28T06:13:55;5.70;;;3.10;;
60730;SDS011;46580;52.114;11.674;2023-02-28T06:16:27;6.87;;;4.00;;
60730;SDS011;46580;52.114;11.674;2023-02-28T06:18:54;10.83;;;5.53;;
60730;SDS011;46580;52.114;11.674;2023-02-28T06:21:21;9.93;;;5.30;;
60730;SDS011;46580;52.114;11.674;2023-02-28T06:23:46;13.03;;;5.93;;
60730;SDS011;46580;52.114;11.674;2023-02-28T06:26:13;10.07;;;5.07;;
60730;SDS011;46580;52.114;11.674;2023-02-28T06:28:38;8.50;;;5.20;;
60730;SDS011;46580;52.114;11.674;2023-02-28T06:31:08;7.40;;;3.80;;
60730;SDS011;46580;52.114;11.674;2023-02-28T06:33:36;4.67;;;3.23;;
60730;SDS011;46580;52.114;11.674;2023-02-28T06:36:03;4.70;;;2.90;;
60730;SDS011;46580;52.114;11.674;2023-02-28T06:38:29;4.50;;;2.50;;
60730;SDS011;46580;52.114;11.674;2023-02-28T06:40:55;6.37;;;3.03;;
60730;SDS011;46580;52.114;11.674;2023-02-28T06:43:22;4.70;;;2.90;;
60730;SDS011;46580;52.114;11.674;2023-02-28T06:45:49;4.37;;;2.50;;
60730;SDS011;46580;52.114;11.674;2023-02-28T06:48:17;9.87;;;2.90;;
60730;SDS011;46580;52.114;11.674;2023-02-28T06:50:43;4.53;;;2.60;;
60730;SDS011;46580;52.114;11.674;2023-02-28T06:53:11;5.00;;;2.80;;
60730;SDS011;46580;52.114;11.674;2023-02-28T06:55:38;3.43;;;2.70;;
60730;SDS011;46580;52.114;11.674;2023-02-28T06:58:04;10.73;;;3.20;;
60730;SDS011;46580;52.114;11.674;2023-02-28T07:00:50;4.00;;;2.53;;
60730;SDS011;46580;52.114;11.674;2023-02-28T07:03:17;3.80;;;2.50;;
60730;SDS011;46580;52.114;11.674;2023-02-28T07:05:43;11.47;;;3.30;;
60730;SDS011;46580;52.114;11.674;2023-02-28T07:08:09;5.23;;;2.97;;
60730;SDS011;46580;52.114;11.674;2023-02-28T07:10:36;5.00;;;3.10;;
60730;SDS011;46580;52.114;11.674;2023-02-28T07:13:03;6.57;;;3.20;;
60730;SDS011;46580;52.114;11.674;2023-02-28T07:15:30;7.10;;;3.13;;
60730;SDS011;46580;52.114;11.674;2023-02-28T07:17:56;4.80;;;3.37;;
60730;SDS011;46580;52.114;11.674;2023-02-28T07:20:23;4.67;;;3.17;;
60730;SDS011;46580;52.114;11.674;2023-02-28T07:22:49;5.00;;;3.10;;
60730;SDS011;46580;52.114;11.674;2023-02-28T07:25:21;5.10;;;2.80;;
60730;SDS011;46580;52.114;11.674;2023-02-28T07:27:48;4.83;;;2.93;;
60730;SDS011;46580;52.114;11.674;2023-02-28T07:30:13;4.50;;;2.40;;
60730;SDS011;46580;52.114;11.674;2023-02-28T07:32:39;4.97;;;2.60;;
60730;SDS011;46580;52.114;11.674;2023-02-28T07:35:05;5.27;;;2.90;;
60730;SDS011;46580;52.114;11.674;2023-02-28T07:37:31;4.50;;;2.97;;
60730;SDS011;46580;52.114;11.674;2023-02-28T07:40:01;5.00;;;3.00;;
60730;SDS011;46580;52.114;11.674;2023-02-28T07:42:31;5.37;;;2.47;;
60730;SDS011;46580;52.114;11.674;2023-02-28T07:44:57;7.07;;;3.10;;
60730;SDS011;46580;52.114;11.674;2023-02-28T07:47:22;6.00;;;2.87;;
60730;SDS011;46580;52.114;11.674;2023-02-28T07:49:48;8.17;;;3.17;;
60730;SDS011;46580;52.114;11.674;2023-02-28T07:52:15;5.40;;;3.17;;
60730;SDS011;46580;52.114;11.674;2023-02-28T07:54:41;5.80;;;2.87;;
60730;SDS011;46580;52.114;11.674;2023-02-28T07:57:06;5.70;;;3.67;;
60730;SDS011;46580;52.114;11.674;2023-02-28T07:59:31;4.77;;;2.77;;
60730;SDS011;46580;52.114;11.674;2023-02-28T08:01:57;2.20;;;2.00;;
60730;SDS011;46580;52.114;11.674;2023-02-28T08:04:23;5.73;;;2.70;;
60730;SDS011;46580;52.114;11.674;2023-02-28T08:06:49;4.23;;;2.57;;
60730;SDS011;46580;52.114;11.674;2023-02-28T08:09:17;4.47;;;2.57;;
60730;SDS011;46580;52.114;11.674;2023-02-28T08:11:42;5.90;;;2.80;;
60730;SDS011;46580;52.114;11.674;2023-02-28T08:14:09;3.43;;;2.37;;
60730;SDS011;46580;52.114;11.674;2023-02-28T08:16:34;7.70;;;2.97;;
60730;SDS011;46580;52.114;11.674;2023-02-28T08:19:02;6.40;;;2.67;;
60730;SDS011;46580;52.114;11.674;2023-02-28T08:21:28;4.50;;;2.73;;
60730;SDS011;46580;52.114;11.674;2023-02-28T08:23:55;3.90;;;2.67;;
60730;SDS011;46580;52.114;11.674;2023-02-28T08:26:22;5.40;;;2.27;;
60730;SDS011;46580;52.114;11.674;2023-02-28T08:28:49;5.73;;;2.53;;
60730;SDS011;46580;52.114;11.674;2023-02-28T08:31:15;7.13;;;3.00;;
60730;SDS011;46580;52.114;11.674;2023-02-28T08:33:42;4.67;;;2.63;;
60730;SDS011;46580;52.114;11.674;2023-02-28T08:36:09;3.73;;;2.33;;
60730;SDS011;46580;52.114;11.674;2023-02-28T08:38:36;4.27;;;2.30;;
60730;SDS011;46580;52.114;11.674;2023-02-28T08:41:03;3.80;;;2.53;;
60730;SDS011;46580;52.114;11.674;2023-02-28T08:43:32;6.37;;;2.70;;
60730;SDS011;46580;52.114;11.674;2023-02-28T08:45:58;7.93;;;2.73;;
60730;SDS011;46580;52.114;11.674;2023-02-28T08:48:26;4.17;;;2.40;;
60730;SDS011;46580;52.114;11.674;2023-02-28T08:51:00;3.40;;;2.60;;
60730;SDS011;46580;52.114;11.674;2023-02-28T08:53:27;3.97;;;2.67;;
60730;SDS011;46580;52.114;11.674;2023-02-28T08:55:59;5.67;;;2.97;;
60730;SDS011;46580;52.114;11.674;2023-02-28T08:58:25;4.30;;;2.70;;
60730;SDS011;46580;52.114;11.674;2023-02-28T09:00:51;3.97;;;2.17;;
60730;SDS011;46580;52.114;11.674;2023-02-28T09:03:17;3.27;;;2.37;;
60730;SDS011;46580;52.114;11.674;2023-02-28T09:05:55;2.80;;;2.13;;
60730;SDS011;46580;52.114;11.674;2023-02-28T09:08:22;2.60;;;2.07;;
60730;SDS011;46580;52.114;11.674;2023-02-28T09:10:48;3.83;;;1.77;;
60730;SDS011;46580;52.114;11.674;2023-02-28T09:13:15;2.83;;;1.80;;
60730;SDS011;46580;52.114;11.674;2023-02-28T09:15:41;2.47;;;1.80;;
60730;SDS011;46580;52.114;11.674;2023-02-28T09:18:07;3.00;;;2.00;;
60730;SDS011;46580;52.114;11.674;2023-02-28T09:20:32;4.20;;;2.00;;
60730;SDS011;46580;52.114;11.674;2023-02-28T09:22:59;4.73;;;2.17;;
60730;SDS011;46580;52.114;11.674;2023-02-28T09:25:25;4.03;;;2.40;;
60730;SDS011;46580;52.114;11.674;2023-02-28T09:27:50;3.20;;;1.90;;
60730;SDS011;46580;52.114;11.674;2023-02-28T09:30:17;2.47;;;1.70;;
60730;SDS011;46580;52.114;11.674;2023-02-28T09:32:42;2.37;;;1.30;;
60730;SDS011;46580;52.114;11.674;2023-02-28T09:35:18;2.93;;;1.80;;
60730;SDS011;46580;52.114;11.674;2023-02-28T09:37:47;3.53;;;2.27;;
60730;SDS011;46580;52.114;11.674;2023-02-28T09:40:13;2.20;;;1.77;;
60730;SDS011;46580;52.114;11.674;2023-02-28T09:42:47;3.50;;;1.90;;
60730;SDS011;46580;52.114;11.674;2023-02-28T09:45:22;4.07;;;2.13;;
60730;SDS011;46580;52.114;11.674;2023-02-28T09:47:54;4.27;;;2.20;;
60730;SDS011;46580;52.114;11.674;2023-02-28T09:53:19;3.13;;;1.80;;
60730;SDS011;46580;52.114;11.674;2023-02-28T09:55:53;2.50;;;1.63;;
60730;SDS011;46580;52.114;11.674;2023-02-28T09:58:26;2.70;;;1.50;;
60730;SDS011;46580;52.114;11.674;2023-02-28T10:00:59;2.47;;;1.40;;
60730;SDS011;46580;52.114;11.674;2023-02-28T10:03:56;1.10;;;0.60;;
60730;SDS011;46580;52.114;11.674;2023-02-28T10:06:28;0.93;;;0.70;;
60730;SDS011;46580;52.114;11.674;2023-02-28T10:09:14;2.47;;;1.07;;
60730;SDS011;46580;52.114;11.674;2023-02-28T10:11:45;1.83;;;0.80;;
60730;SDS011;46580;52.114;11.674;2023-02-28T10:17:14;1.27;;;1.00;;
60730;SDS011;46580;52.114;11.674;2023-02-28T10:20:20;3.00;;;1.00;;
60730;SDS011;46580;52.114;11.674;2023-02-28T10:25:24;1.50;;;1.30;;
60730;SDS011;46580;52.114;11.674;2023-02-28T10:27:53;1.30;;;0.80;;
60730;SDS011;46580;52.114;11.674;2023-02-28T10:30:23;2.07;;;1.10;;
60730;SDS011;46580;52.114;11.674;2023-02-28T10:32:50;1.83;;;1.40;;
60730;SDS011;46580;52.114;11.674;2023-02-28T10:35:22;2.13;;;1.20;;
60730;SDS011;46580;52.114;11.674;2023-02-28T10:37:51;3.17;;;1.10;;
60730;SDS011;46580;52.114;11.674;2023-02-28T10:43:00;2.37;;;1.47;;
60730;SDS011;46580;52.114;11.674;2023-02-28T10:45:28;1.47;;;1.23;;
60730;SDS011;46580;52.114;11.674;2023-02-28T10:48:04;2.63;;;1.10;;
60730;SDS011;46580;52.114;11.674;2023-02-28T10:50:46;2.23;;;1.13;;
60730;SDS011;46580;52.114;11.674;2023-02-28T10:58:23;3.13;;;1.90;;
60730;SDS011;46580;52.114;11.674;2023-02-28T11:00:50;2.00;;;1.33;;
60730;SDS011;46580;52.114;11.674;2023-02-28T11:03:38;1.90;;;0.93;;
60730;SDS011;46580;52.114;11.674;2023-02-28T11:06:07;2.20;;;1.07;;
60730;SDS011;46580;52.114;11.674;2023-02-28T11:08:52;1.73;;;1.10;;
60730;SDS011;46580;52.114;11.674;2023-02-28T11:11:19;2.17;;;1.33;;
60730;SDS011;46580;52.114;11.674;2023-02-28T11:13:46;2.27;;;1.30;;
60730;SDS011;46580;52.114;11.674;2023-02-28T11:16:16;2.60;;;1.50;;
60730;SDS011;46580;52.114;11.674;2023-02-28T11:18:46;2.13;;;1.50;;
60730;SDS011;46580;52.114;11.674;2023-02-28T11:21:22;3.50;;;1.40;;
60730;SDS011;46580;52.114;11.674;2023-02-28T11:23:51;1.50;;;1.20;;
60730;SDS011;46580;52.114;11.674;2023-02-28T11:26:54;5.23;;;1.50;;
60730;SDS011;46580;52.114;11.674;2023-02-28T11:29:21;3.20;;;1.37;;
60730;SDS011;46580;52.114;11.674;2023-02-28T11:34:45;2.80;;;1.47;;
60730;SDS011;46580;52.114;11.674;2023-02-28T11:37:16;3.03;;;1.73;;
60730;SDS011;46580;52.114;11.674;2023-02-28T11:39:45;2.20;;;1.03;;
60730;SDS011;46580;52.114;11.674;2023-02-28T11:45:30;3.97;;;1.53;;
60730;SDS011;46580;52.114;11.674;2023-02-28T11:51:21;3.77;;;1.70;;
60730;SDS011;46580;52.114;11.674;2023-02-28T11:53:56;2.50;;;1.30;;
60730;SDS011;46580;52.114;11.674;2023-02-28T11:59:26;4.33;;;1.40;;
60730;SDS011;46580;52.114;11.674;2023-02-28T12:02:05;1.83;;;1.30;;
60730;SDS011;46580;52.114;11.674;2023-02-28T12:10:27;4.67;;;1.53;;
60730;SDS011;46580;52.114;11.674;2023-02-28T12:21:08;2.00;;;1.57;;
60730;SDS011;46580;52.114;11.674;2023-02-28T12:32:09;3.73;;;1.70;;
60730;SDS011;46580;52.114;11.674;2023-02-28T12:34:39;2.30;;;1.70;;
60730;SDS011;46580;52.114;11.674;2023-02-28T12:40:18;2.30;;;1.30;;
60730;SDS011;46580;52.114;11.674;2023-02-28T12:42:51;2.23;;;1.50;;
60730;SDS011;46580;52.114;11.674;2023-02-28T12:47:57;3.57;;;1.40;;
60730;SDS011;46580;52.114;11.674;2023-02-28T12:50:26;2.67;;;1.37;;
60730;SDS011;46580;52.114;11.674;2023-02-28T12:55:56;2.50;;;1.70;;
60730;SDS011;46580;52.114;11.674;2023-02-28T12:58:38;3.23;;;1.50;;
60730;SDS011;46580;52.114;11.674;2023-02-28T13:01:14;2.83;;;1.43;;
60730;SDS011;46580;52.114;11.674;2023-02-28T13:09:23;3.23;;;1.80;;
60730;SDS011;46580;52.114;11.674;2023-02-28T13:11:52;3.70;;;1.50;;
60730;SDS011;46580;52.114;11.674;2023-02-28T13:14:35;2.70;;;1.63;;
60730;SDS011;46580;52.114;11.674;2023-02-28T13:22:35;2.63;;;1.70;;
60730;SDS011;46580;52.114;11.674;2023-02-28T13:27:46;3.03;;;1.70;;
60730;SDS011;46580;52.114;11.674;2023-02-28T13:33:36;2.97;;;1.73;;
60730;SDS011;46580;52.114;11.674;2023-02-28T13:36:25;3.53;;;1.73;;
60730;SDS011;46580;52.114;11.674;2023-02-28T13:38:55;3.47;;;1.63;;
60730;SDS011;46580;52.114;11.674;2023-02-28T13:44:14;1.87;;;1.60;;
60730;SDS011;46580;52.114;11.674;2023-02-28T13:51:51;5.10;;;1.63;;
60730;SDS011;46580;52.114;11.674;2023-02-28T14:08:59;3.37;;;1.60;;
60730;SDS011;46580;52.114;11.674;2023-02-28T14:11:30;1.70;;;1.03;;
60730;SDS011;46580;52.114;11.674;2023-02-28T14:14:01;3.27;;;1.63;;
60730;SDS011;46580;52.114;11.674;2023-02-28T14:16:44;3.30;;;1.50;;
60730;SDS011;46580;52.114;11.674;2023-02-28T14:19:16;3.47;;;1.70;;
60730;SDS011;46580;52.114;11.674;2023-02-28T14:21:53;2.43;;;1.50;;
60730;SDS011;46580;52.114;11.674;2023-02-28T14:30:04;1.70;;;1.50;;
60730;SDS011;46580;52.114;11.674;2023-02-28T14:33:23;2.13;;;1.73;;
60730;SDS011;46580;52.114;11.674;2023-02-28T14:36:10;3.53;;;1.90;;
60730;SDS011;46580;52.114;11.674;2023-02-28T14:41:17;1.97;;;1.50;;
60730;SDS011;46580;52.114;11.674;2023-02-28T14:43:51;2.60;;;1.77;;
60730;SDS011;46580;52.114;11.674;2023-02-28T14:46:22;1.80;;;1.53;;
60730;SDS011;46580;52.114;11.674;2023-02-28T14:48:51;3.33;;;1.83;;
60730;SDS011;46580;52.114;11.674;2023-02-28T14:51:20;1.57;;;1.27;;
60730;SDS011;46580;52.114;11.674;2023-02-28T14:53:50;4.17;;;1.60;;
60730;SDS011;46580;52.114;11.674;2023-02-28T14:56:22;3.40;;;1.93;;
60730;SDS011;46580;52.114;11.674;2023-02-28T14:58:51;2.63;;;2.10;;
60730;SDS011;46580;52.114;11.674;2023-02-28T15:01:19;2.87;;;1.70;;
60730;SDS011;46580;52.114;11.674;2023-02-28T15:03:46;1.83;;;1.53;;
60730;SDS011;46580;52.114;11.674;2023-02-28T15:06:16;1.90;;;1.47;;
60730;SDS011;46580;52.114;11.674;2023-02-28T15:08:44;3.77;;;2.17;;
60730;SDS011;46580;52.114;11.674;2023-02-28T15:13:46;3.57;;;1.93;;
60730;SDS011;46580;52.114;11.674;2023-02-28T15:16:16;3.93;;;2.20;;
60730;SDS011;46580;52.114;11.674;2023-02-28T15:21:31;2.87;;;1.80;;
60730;SDS011;46580;52.114;11.674;2023-02-28T15:23:59;3.53;;;1.80;;
60730;SDS011;46580;52.114;11.674;2023-02-28T15:26:27;4.70;;;1.87;;
60730;SDS011;46580;52.114;11.674;2023-02-28T15:29:00;2.40;;;1.70;;
60730;SDS011;46580;52.114;11.674;2023-02-28T15:31:34;2.47;;;1.80;;
60730;SDS011;46580;52.114;11.674;2023-02-28T15:34:05;3.70;;;2.30;;
60730;SDS011;46580;52.114;11.674;2023-02-28T15:36:32;2.70;;;2.03;;
60730;SDS011;46580;52.114;11.674;2023-02-28T15:39:02;3.47;;;1.90;;
60730;SDS011;46580;52.114;11.674;2023-02-28T15:41:43;3.40;;;2.50;;
60730;SDS011;46580;52.114;11.674;2023-02-28T15:47:01;4.90;;;2.93;;
60730;SDS011;46580;52.114;11.674;2023-02-28T15:49:36;3.57;;;2.40;;
60730;SDS011;46580;52.114;11.674;2023-02-28T15:52:05;3.67;;;2.50;;
60730;SDS011;46580;52.114;11.674;2023-02-28T15:54:32;4.63;;;2.30;;
60730;SDS011;46580;52.114;11.674;2023-02-28T15:57:06;2.83;;;2.17;;
60730;SDS011;46580;52.114;11.674;2023-02-28T15:59:33;3.60;;;2.20;;
60730;SDS011;46580;52.114;11.674;2023-02-28T16:07:26;2.97;;;1.93;;
60730;SDS011;46580;52.114;11.674;2023-02-28T16:09:53;2.93;;;2.00;;
60730;SDS011;46580;52.114;11.674;2023-02-28T16:12:19;4.13;;;2.37;;
60730;SDS011;46580;52.114;11.674;2023-02-28T16:14:50;4.07;;;2.00;;
60730;SDS011;46580;52.114;11.674;2023-02-28T16:17:21;3.83;;;2.57;;
60730;SDS011;46580;52.114;11.674;2023-02-28T16:19:48;3.90;;;2.30;;
60730;SDS011;46580;52.114;11.674;2023-02-28T16:22:14;5.37;;;2.70;;
60730;SDS011;46580;52.114;11.674;2023-02-28T16:24:40;4.47;;;2.20;;
60730;SDS011;46580;52.114;11.674;2023-02-28T16:27:05;6.30;;;2.87;;
60730;SDS011;46580;52.114;11.674;2023-02-28T16:29:32;4.17;;;2.90;;
60730;SDS011;46580;52.114;11.674;2023-02-28T16:32:00;4.93;;;2.93;;
60730;SDS011;46580;52.114;11.674;2023-02-28T16:34:29;6.03;;;3.10;;
60730;SDS011;46580;52.114;11.674;2023-02-28T16:36:54;4.80;;;2.90;;
60730;SDS011;46580;52.114;11.674;2023-02-28T16:39:21;5.50;;;3.47;;
60730;SDS011;46580;52.114;11.674;2023-02-28T16:41:48;11.50;;;5.00;;
60730;SDS011;46580;52.114;11.674;2023-02-28T16:44:27;12.90;;;5.93;;
60730;SDS011;46580;52.114;11.674;2023-02-28T16:46:54;9.77;;;5.10;;
60730;SDS011;46580;52.114;11.674;2023-02-28T16:49:21;8.90;;;5.63;;
60730;SDS011;46580;52.114;11.674;2023-02-28T16:51:47;6.73;;;4.63;;
60730;SDS011;46580;52.114;11.674;2023-02-28T16:54:12;6.73;;;4.40;;
60730;SDS011;46580;52.114;11.674;2023-02-28T16:56:40;5.00;;;3.63;;
60730;SDS011;46580;52.114;11.674;2023-02-28T16:59:09;6.07;;;3.70;;
60730;SDS011;46580;52.114;11.674;2023-02-28T17:01:35;6.53;;;3.83;;
60730;SDS011;46580;52.114;11.674;2023-02-28T17:04:01;6.07;;;4.20;;
60730;SDS011;46580;52.114;11.674;2023-02-28T17:06:28;6.20;;;3.60;;
60730;SDS011;46580;52.114;11.674;2023-02-28T17:08:54;6.80;;;4.00;;
60730;SDS011;46580;52.114;11.674;2023-02-28T17:11:21;7.93;;;4.87;;
60730;SDS011;46580;52.114;11.674;2023-02-28T17:13:47;6.23;;;4.87;;
60730;SDS011;46580;52.114;11.674;2023-02-28T17:16:14;6.50;;;4.10;;
60730;SDS011;46580;52.114;11.674;2023-02-28T17:18:47;6.77;;;4.37;;
60730;SDS011;46580;52.114;11.674;2023-02-28T17:21:13;7.30;;;4.40;;
60730;SDS011;46580;52.114;11.674;2023-02-28T17:23:41;7.90;;;4.20;;
60730;SDS011;46580;52.114;11.674;2023-02-28T17:26:09;7.43;;;4.23;;
60730;SDS011;46580;52.114;11.674;2023-02-28T17:28:39;8.40;;;4.50;;
60730;SDS011;46580;52.114;11.674;2023-02-28T17:31:05;9.10;;;6.07;;
60730;SDS011;46580;52.114;11.674;2023-02-28T17:33:31;10.87;;;9.40;;